Time;durP1;ratioP1;P1;durP2;ratioP2;P2;SDS_P1;SDS_P2;PMS_P1;PMS_P2;Temp;Humidity;BMP_temperature;BMP_pressure;BME280_temperature;BME280_humidity;BME280_pressure;Samples;Min_cycle;Max_cycle;Signal;HPM_P1;HPM_P2
2023/09/30 00:00:05;;;;;;;11.63;5.43;;;14.30;83.50;;;;;;5051062;28;20112;-34
2023/09/30 00:02:30;;;;;;;9.05;4.70;;;14.30;83.50;;;;;;5050964;28;20021;-34
2023/09/30 00:04:56;;;;;;;11.30;4.60;;;14.40;83.60;;;;;;5050965;28;20527;-35
2023/09/30 00:07:21;;;;;;;12.30;4.13;;;14.40;83.60;;;;;;5050946;28;20032;-35
2023/09/30 00:09:47;;;;;;;9.18;4.30;;;14.40;83.60;;;;;;5050862;28;20052;-34
2023/09/30 00:12:13;;;;;;;11.40;4.85;;;14.50;83.60;;;;;;5051000;28;20036;-34
2023/09/30 00:14:38;;;;;;;9.93;3.97;;;14.50;83.60;;;;;;5049907;28;20093;-34
2023/09/30 00:17:04;;;;;;;10.93;4.97;;;14.50;83.60;;;;;;5051139;28;20116;-34
2023/09/30 00:19:32;;;;;;;8.80;3.70;;;14.50;83.60;;;;;;5050971;28;20032;-47
2023/09/30 00:21:57;;;;;;;9.60;3.80;;;14.50;83.60;;;;;;5051132;28;20021;-33
2023/09/30 00:24:23;;;;;;;9.98;3.80;;;14.50;83.60;;;;;;5050911;28;20032;-35
2023/09/30 00:26:50;;;;;;;10.77;3.90;;;14.50;83.70;;;;;;5050992;28;20112;-35
2023/09/30 00:29:16;;;;;;;9.55;4.35;;;14.60;83.70;;;;;;5050740;28;20555;-34
2023/09/30 00:31:41;;;;;;;11.48;4.47;;;14.60;83.70;;;;;;5050980;28;20026;-35
2023/09/30 00:34:08;;;;;;;10.52;4.40;;;14.50;83.60;;;;;;5050725;28;20045;-33
2023/09/30 00:36:33;;;;;;;12.50;4.60;;;14.50;83.60;;;;;;5050926;28;20025;-34
2023/09/30 00:38:59;;;;;;;10.93;4.88;;;14.50;83.70;;;;;;5050645;28;20048;-34
2023/09/30 00:41:25;;;;;;;9.20;4.30;;;14.50;83.70;;;;;;5050569;28;20086;-34
2023/09/30 00:43:50;;;;;;;9.38;4.10;;;14.50;83.80;;;;;;5050581;28;20018;-33
2023/09/30 00:46:32;;;;;;;10.93;3.88;;;14.50;83.80;;;;;;5050583;28;20029;-33
2023/09/30 00:48:58;;;;;;;6.78;3.65;;;14.50;83.90;;;;;;5050690;28;20166;-34
2023/09/30 00:51:25;;;;;;;11.77;4.10;;;14.50;83.90;;;;;;5049224;28;20548;-34
2023/09/30 00:53:52;;;;;;;8.88;4.00;;;14.50;84.00;;;;;;5052404;28;20020;-34
2023/09/30 00:56:19;;;;;;;8.43;3.85;;;14.50;84.00;;;;;;5054472;28;20020;-34
2023/09/30 00:58:47;;;;;;;9.50;4.38;;;14.40;83.90;;;;;;5054199;28;20423;-35
2023/09/30 01:01:13;;;;;;;9.35;4.30;;;14.40;84.00;;;;;;5053992;28;20436;-34
2023/09/30 01:03:38;;;;;;;12.70;4.70;;;14.40;84.00;;;;;;5053546;28;20017;-34
2023/09/30 01:06:04;;;;;;;10.38;4.15;;;14.40;84.10;;;;;;5054174;28;20021;-34
2023/09/30 01:08:31;;;;;;;8.63;4.35;;;14.30;84.10;;;;;;5053808;28;20100;-34
2023/09/30 01:10:57;;;;;;;11.45;4.38;;;14.30;84.20;;;;;;5052511;28;20039;-35
2023/09/30 01:13:22;;;;;;;8.45;4.30;;;14.30;84.30;;;;;;5053972;28;20029;-36
2023/09/30 01:15:48;;;;;;;10.88;4.35;;;14.30;85.00;;;;;;5053814;28;20036;-35
2023/09/30 01:18:13;;;;;;;12.93;4.88;;;14.20;84.40;;;;;;5053808;28;20025;-33
2023/09/30 01:20:40;;;;;;;10.55;4.65;;;14.20;84.40;;;;;;5053806;28;20028;-33
2023/09/30 01:23:05;;;;;;;13.88;4.88;;;14.20;84.50;;;;;;5053722;28;20052;-34
2023/09/30 01:25:33;;;;;;;8.20;4.30;;;14.10;84.50;;;;;;5053528;28;20041;-36
2023/09/30 01:28:00;;;;;;;11.90;4.40;;;14.10;84.50;;;;;;5053568;28;20025;-34
2023/09/30 01:30:25;;;;;;;9.90;4.00;;;14.10;84.60;;;;;;5053446;28;20451;-34
2023/09/30 01:32:51;;;;;;;10.10;3.88;;;14.00;84.60;;;;;;5053569;28;20095;-34
2023/09/30 01:35:16;;;;;;;12.07;4.65;;;14.00;84.70;;;;;;5053448;28;20455;-34
2023/09/30 01:37:42;;;;;;;10.93;4.13;;;13.90;84.80;;;;;;5053200;28;20491;-34
2023/09/30 01:40:11;;;;;;;10.82;4.50;;;13.90;84.80;;;;;;5053317;28;20136;-37
2023/09/30 01:42:37;;;;;;;7.28;4.50;;;13.90;84.90;;;;;;5053302;28;20032;-36
2023/09/30 01:45:04;;;;;;;10.32;4.45;;;13.90;84.90;;;;;;5053579;28;20389;-34
2023/09/30 01:47:29;;;;;;;10.10;4.40;;;13.90;84.90;;;;;;5052937;28;20052;-33
2023/09/30 01:49:55;;;;;;;10.77;4.53;;;14.00;85.00;;;;;;5052828;28;20083;-34
2023/09/30 01:52:20;;;;;;;9.27;4.30;;;13.90;84.90;;;;;;5053163;28;20079;-34
2023/09/30 01:54:46;;;;;;;11.70;4.32;;;14.00;85.00;;;;;;5052963;28;20101;-33
2023/09/30 01:57:12;;;;;;;10.10;4.18;;;13.90;84.90;;;;;;5052848;28;20028;-35
2023/09/30 01:59:37;;;;;;;8.85;4.38;;;13.90;85.50;;;;;;5053206;28;20021;-32
2023/09/30 02:02:03;;;;;;;8.80;4.95;;;13.90;84.90;;;;;;5052968;28;20033;-35
2023/09/30 02:04:29;;;;;;;10.52;4.50;;;13.90;85.00;;;;;;5052901;28;20025;-33
2023/09/30 02:06:54;;;;;;;10.63;4.82;;;13.90;84.90;;;;;;5052641;28;20025;-33
2023/09/30 02:09:20;;;;;;;11.02;4.68;;;13.90;85.00;;;;;;5052562;28;20036;-34
2023/09/30 02:11:45;;;;;;;12.40;4.82;;;13.90;85.00;;;;;;5051372;28;20044;-34
2023/09/30 02:14:11;;;;;;;11.02;4.65;;;13.90;85.00;;;;;;5052673;28;20024;-40
2023/09/30 02:16:38;;;;;;;10.18;5.13;;;13.80;84.90;;;;;;5052595;28;20115;-34
2023/09/30 02:19:04;;;;;;;10.10;4.80;;;13.80;84.90;;;;;;5052687;28;20021;-36
2023/09/30 02:21:29;;;;;;;11.35;5.00;;;13.80;84.90;;;;;;5052479;28;20025;-36
2023/09/30 02:23:55;;;;;;;9.70;5.15;;;13.80;85.00;;;;;;5052367;28;20029;-34
2023/09/30 02:26:22;;;;;;;8.00;4.93;;;13.80;85.10;;;;;;5052316;28;20017;-34
2023/09/30 02:28:48;;;;;;;12.60;6.13;;;13.70;85.00;;;;;;5052332;28;20516;-34
2023/09/30 02:31:13;;;;;;;9.73;5.57;;;13.70;85.10;;;;;;5052339;28;20036;-33
2023/09/30 02:33:39;;;;;;;13.50;6.47;;;13.70;85.20;;;;;;5052188;28;20384;-34
2023/09/30 02:36:08;;;;;;;12.90;6.13;;;13.70;85.20;;;;;;5052239;28;20132;-32
2023/09/30 02:38:36;;;;;;;12.55;6.47;;;13.70;85.20;;;;;;5052252;28;20021;-34
2023/09/30 02:41:02;;;;;;;11.48;5.60;;;13.80;85.30;;;;;;5052103;28;20024;-34
2023/09/30 02:43:28;;;;;;;10.70;5.45;;;13.80;85.20;;;;;;5052016;28;20021;-33
2023/09/30 02:45:53;;;;;;;10.75;5.72;;;13.90;85.20;;;;;;5051866;28;20021;-34
2023/09/30 02:48:19;;;;;;;11.75;5.65;;;13.90;85.20;;;;;;5050392;28;20032;-34
2023/09/30 02:50:44;;;;;;;10.43;4.97;;;14.00;85.20;;;;;;5051909;28;20101;-32
2023/09/30 02:53:12;;;;;;;9.32;5.30;;;14.00;85.10;;;;;;5051644;28;20025;-33
2023/09/30 02:55:37;;;;;;;8.38;4.40;;;14.00;85.00;;;;;;5051918;28;20020;-34
2023/09/30 02:58:03;;;;;;;9.60;5.25;;;14.10;85.10;;;;;;5051968;28;20453;-34
2023/09/30 03:00:32;;;;;;;12.57;5.40;;;14.10;85.10;;;;;;5052039;28;20520;-35
2023/09/30 03:03:01;;;;;;;10.30;5.25;;;14.10;85.10;;;;;;5051659;28;20032;-34
2023/09/30 03:05:27;;;;;;;10.98;5.35;;;14.20;85.10;;;;;;5052005;28;20094;-33
2023/09/30 03:07:55;;;;;;;9.82;4.95;;;14.10;85.10;;;;;;5051881;28;20021;-34
2023/09/30 03:10:23;;;;;;;7.78;4.90;;;14.10;85.70;;;;;;5051501;28;20047;-34
2023/09/30 03:13:01;;;;;;;8.88;5.03;;;14.20;85.20;;;;;;5051886;28;20048;-34
2023/09/30 03:15:28;;;;;;;8.32;4.93;;;14.20;85.20;;;;;;5051173;28;20033;-33
2023/09/30 03:17:55;;;;;;;9.20;4.93;;;14.20;85.20;;;;;;5051419;28;20110;-31
2023/09/30 03:20:21;;;;;;;8.95;5.25;;;14.20;85.10;;;;;;5051729;28;20488;-34
2023/09/30 03:22:47;;;;;;;10.68;5.25;;;14.20;85.20;;;;;;5051651;28;20451;-34
2023/09/30 03:25:16;;;;;;;8.25;5.60;;;14.20;85.20;;;;;;5051319;28;20024;-35
2023/09/30 03:27:41;;;;;;;9.85;5.53;;;14.20;85.20;;;;;;5051241;28;20477;-35
2023/09/30 03:30:08;;;;;;;10.52;5.97;;;14.20;85.20;;;;;;5051285;28;20049;-33
2023/09/30 03:32:37;;;;;;;8.57;5.82;;;14.20;85.20;;;;;;5051397;28;20025;-34
2023/09/30 03:35:07;;;;;;;10.70;5.40;;;14.20;85.20;;;;;;5051444;28;20021;-34
2023/09/30 03:37:32;;;;;;;11.35;5.82;;;14.20;85.30;;;;;;5051154;28;20108;-34
2023/09/30 03:39:58;;;;;;;10.85;5.68;;;14.20;85.30;;;;;;5050029;28;20496;-32
2023/09/30 03:42:24;;;;;;;9.50;5.80;;;14.20;85.30;;;;;;5051414;28;20389;-34
2023/09/30 03:44:49;;;;;;;12.23;6.10;;;14.20;85.30;;;;;;5051436;28;20029;-35
2023/09/30 03:47:18;;;;;;;8.82;5.38;;;14.20;85.40;;;;;;5051059;28;20025;-34
2023/09/30 03:49:44;;;;;;;10.25;5.80;;;14.20;85.50;;;;;;5051037;28;20029;-32
2023/09/30 03:52:11;;;;;;;8.70;5.72;;;14.20;85.40;;;;;;5051413;28;20024;-34
2023/09/30 03:54:37;;;;;;;9.48;5.50;;;14.20;85.40;;;;;;5051003;28;20017;-34
2023/09/30 03:57:03;;;;;;;13.20;6.30;;;14.20;85.40;;;;;;5051006;28;20047;-34
2023/09/30 03:59:30;;;;;;;9.90;5.75;;;14.20;85.40;;;;;;5051697;28;20021;-34
2023/09/30 04:01:57;;;;;;;9.93;6.30;;;14.20;85.40;;;;;;5051404;28;20049;-33
2023/09/30 04:04:23;;;;;;;7.97;5.60;;;14.20;85.40;;;;;;5051258;28;20021;-34
2023/09/30 04:06:51;;;;;;;9.82;6.05;;;14.20;85.40;;;;;;5050928;28;20031;-32
2023/09/30 04:09:17;;;;;;;12.00;6.97;;;14.10;85.40;;;;;;5050900;28;20397;-32
2023/09/30 04:11:43;;;;;;;9.45;6.35;;;14.10;86.10;;;;;;5051244;28;20021;-35
2023/09/30 04:14:09;;;;;;;9.80;6.35;;;14.10;85.50;;;;;;5050733;28;20477;-32
2023/09/30 04:16:37;;;;;;;11.40;6.20;;;14.10;85.60;;;;;;5051026;28;20380;-34
2023/09/30 04:19:03;;;;;;;12.02;6.45;;;14.10;85.50;;;;;;5050975;28;20067;-34
2023/09/30 04:21:30;;;;;;;12.68;6.93;;;14.10;85.60;;;;;;5050797;28;20033;-33
2023/09/30 04:23:56;;;;;;;10.55;6.43;;;14.10;85.50;;;;;;5050599;28;20056;-34
2023/09/30 04:26:22;;;;;;;11.18;6.30;;;14.10;85.60;;;;;;5051193;28;20029;-35
2023/09/30 04:28:49;;;;;;;12.50;6.57;;;14.10;85.60;;;;;;5052731;28;20037;-34
2023/09/30 04:31:14;;;;;;;12.68;6.70;;;14.10;85.60;;;;;;5054792;28;20032;-34
2023/09/30 04:33:40;;;;;;;8.68;6.10;;;14.20;85.70;;;;;;5054853;28;20013;-34
2023/09/30 04:36:10;;;;;;;12.18;6.57;;;14.10;85.70;;;;;;5054502;28;20390;-35
2023/09/30 04:38:38;;;;;;;10.98;6.88;;;14.10;85.70;;;;;;5054390;28;20063;-34
2023/09/30 04:41:07;;;;;;;10.23;6.35;;;14.10;85.70;;;;;;5054462;28;20063;-35
2023/09/30 04:43:33;;;;;;;9.40;6.50;;;14.10;85.70;;;;;;5054413;28;20059;-35
2023/09/30 04:45:58;;;;;;;10.98;6.70;;;14.10;85.70;;;;;;5054277;28;20492;-33
2023/09/30 04:48:24;;;;;;;11.63;6.90;;;14.10;85.70;;;;;;5054404;28;20029;-35
2023/09/30 04:50:51;;;;;;;10.23;7.07;;;14.10;85.70;;;;;;5054356;28;20104;-35
2023/09/30 04:53:17;;;;;;;10.20;6.72;;;14.10;85.80;;;;;;5054055;28;20021;-32
2023/09/30 04:55:44;;;;;;;11.57;6.40;;;14.20;85.90;;;;;;5054220;28;20028;-35
2023/09/30 04:58:10;;;;;;;13.73;6.82;;;14.10;85.80;;;;;;5054216;28;20389;-41
2023/09/30 05:00:35;;;;;;;8.95;6.68;;;14.10;85.80;;;;;;5054158;28;20020;-33
2023/09/30 05:03:01;;;;;;;11.98;6.68;;;14.10;85.80;;;;;;5053991;28;20025;-35
2023/09/30 05:05:28;;;;;;;9.25;6.70;;;14.10;85.80;;;;;;5054008;28;20383;-33
2023/09/30 05:07:54;;;;;;;11.18;6.82;;;14.20;85.80;;;;;;5053955;28;20025;-35
2023/09/30 05:10:20;;;;;;;9.57;6.13;;;14.20;85.90;;;;;;5054157;28;20116;-34
2023/09/30 05:12:45;;;;;;;10.63;6.85;;;14.20;86.40;;;;;;5053852;28;20024;-35
2023/09/30 05:15:13;;;;;;;12.07;6.90;;;14.20;85.80;;;;;;5054139;28;20021;-35
2023/09/30 05:17:39;;;;;;;10.95;6.78;;;14.20;85.90;;;;;;5053822;28;20021;-35
2023/09/30 05:20:06;;;;;;;10.38;6.85;;;14.20;85.80;;;;;;5053549;28;20025;-35
2023/09/30 05:22:35;;;;;;;13.13;7.50;;;14.20;85.90;;;;;;5053944;28;20028;-35
2023/09/30 05:25:01;;;;;;;12.88;7.30;;;14.20;85.90;;;;;;5053797;28;20075;-34
2023/09/30 05:27:27;;;;;;;12.35;7.70;;;14.20;85.90;;;;;;5053421;28;20025;-33
2023/09/30 05:29:52;;;;;;;12.30;6.93;;;14.10;85.90;;;;;;5053339;28;20056;-35
2023/09/30 05:32:18;;;;;;;11.48;7.10;;;14.10;85.90;;;;;;5053445;28;20017;-35
2023/09/30 05:34:44;;;;;;;9.85;7.13;;;14.10;85.90;;;;;;5053938;28;20028;-40
2023/09/30 05:37:09;;;;;;;11.13;7.10;;;14.10;86.00;;;;;;5053331;28;20017;-35
2023/09/30 05:39:35;;;;;;;14.10;7.70;;;14.10;86.00;;;;;;5052946;28;20392;-35
2023/09/30 05:42:01;;;;;;;12.80;7.38;;;14.10;86.00;;;;;;5053223;28;20017;-34
2023/09/30 05:44:27;;;;;;;9.70;7.10;;;14.10;86.10;;;;;;5053258;28;20041;-34
2023/09/30 05:46:53;;;;;;;10.90;7.47;;;14.10;86.20;;;;;;5052973;28;20086;-34
2023/09/30 05:49:19;;;;;;;10.50;7.22;;;14.10;86.20;;;;;;5052831;28;20029;-33
2023/09/30 05:51:46;;;;;;;12.20;7.95;;;14.00;86.20;;;;;;5053378;28;20452;-33
2023/09/30 05:54:12;;;;;;;12.20;6.90;;;14.00;86.20;;;;;;5052825;28;20021;-33
2023/09/30 05:56:38;;;;;;;13.73;7.38;;;14.00;86.30;;;;;;5052883;28;20075;-33
2023/09/30 05:59:07;;;;;;;10.90;7.72;;;14.00;86.40;;;;;;5052716;28;20384;-35
2023/09/30 06:01:33;;;;;;;11.60;6.68;;;14.00;86.40;;;;;;5052891;28;20052;-34
2023/09/30 06:03:59;;;;;;;11.90;6.63;;;14.00;86.40;;;;;;5053146;28;20436;-39
2023/09/30 06:06:26;;;;;;;13.65;7.43;;;14.00;86.50;;;;;;5052960;28;20469;-34
2023/09/30 06:08:53;;;;;;;9.80;6.80;;;14.00;86.50;;;;;;5052621;28;20075;-35
2023/09/30 06:11:24;;;;;;;11.23;7.43;;;13.90;86.50;;;;;;5053033;28;20029;-34
2023/09/30 06:13:54;;;;;;;11.43;7.53;;;14.00;86.60;;;;;;5051334;28;20025;-34
2023/09/30 06:16:20;;;;;;;10.85;7.13;;;13.90;86.60;;;;;;5052857;28;20029;-35
2023/09/30 06:18:46;;;;;;;8.57;6.88;;;14.00;86.70;;;;;;5051208;28;20192;-33
2023/09/30 06:21:17;;;;;;;11.02;7.10;;;14.00;86.70;;;;;;5052641;28;20029;-34
2023/09/30 06:23:43;;;;;;;10.30;7.00;;;14.00;86.70;;;;;;5052319;28;20048;-34
2023/09/30 06:26:09;;;;;;;9.48;7.13;;;14.00;86.80;;;;;;5052401;28;20359;-32
2023/09/30 06:28:40;;;;;;;10.95;7.85;;;14.00;86.80;;;;;;5052496;28;20033;-35
2023/09/30 06:31:07;;;;;;;10.23;6.55;;;14.00;86.80;;;;;;5052656;28;20175;-34
2023/09/30 06:33:33;;;;;;;15.32;7.30;;;14.00;86.70;;;;;;5052331;28;20025;-33
2023/09/30 06:36:01;;;;;;;12.57;7.03;;;14.00;86.70;;;;;;5052240;28;20086;-33
2023/09/30 06:38:27;;;;;;;13.65;7.10;;;14.10;86.80;;;;;;5052389;28;20020;-34
2023/09/30 06:40:53;;;;;;;15.18;7.78;;;14.10;86.80;;;;;;5052273;28;20074;-34
2023/09/30 06:43:19;;;;;;;12.10;7.35;;;14.10;86.70;;;;;;5052085;28;20131;-34
2023/09/30 06:45:46;;;;;;;11.40;8.07;;;14.10;86.70;;;;;;5051912;28;20017;-35
2023/09/30 06:48:12;;;;;;;13.05;7.45;;;14.10;86.70;;;;;;5051999;28;20032;-34
2023/09/30 06:50:45;;;;;;;11.88;6.88;;;14.10;86.70;;;;;;5051255;28;20028;-34
2023/09/30 06:53:10;;;;;;;11.03;7.30;;;14.10;86.70;;;;;;5052219;28;20363;-35
2023/09/30 06:55:39;;;;;;;12.55;7.45;;;14.10;86.80;;;;;;5051997;28;20031;-34
2023/09/30 06:58:07;;;;;;;11.68;7.50;;;14.10;86.80;;;;;;5052199;28;20021;-35
2023/09/30 07:00:33;;;;;;;12.40;7.53;;;14.20;86.80;;;;;;5052070;28;20021;-34
2023/09/30 07:02:59;;;;;;;10.35;7.60;;;14.20;86.90;;;;;;5052083;28;20025;-34
2023/09/30 07:05:24;;;;;;;11.25;7.05;;;14.20;86.90;;;;;;5051832;28;20538;-35
2023/09/30 07:07:51;;;;;;;10.80;7.43;;;14.20;86.90;;;;;;5051723;28;20516;-34
2023/09/30 07:10:16;;;;;;;11.27;7.00;;;14.20;86.80;;;;;;5051854;28;20734;-35
2023/09/30 07:12:42;;;;;;;12.05;7.50;;;14.30;86.90;;;;;;5050531;28;20025;-35
2023/09/30 07:15:08;;;;;;;11.68;7.10;;;14.30;86.80;;;;;;5051631;28;20033;-34
2023/09/30 07:17:34;;;;;;;10.25;6.80;;;14.30;86.80;;;;;;5051242;28;20049;-35
2023/09/30 07:20:01;;;;;;;11.00;7.03;;;14.40;86.80;;;;;;5051570;28;20118;-34
2023/09/30 07:22:26;;;;;;;11.05;6.07;;;14.40;86.80;;;;;;5051466;28;20108;-34
2023/09/30 07:24:52;;;;;;;10.73;7.15;;;14.40;86.80;;;;;;5051525;28;20137;-34
2023/09/30 07:27:18;;;;;;;10.93;7.03;;;14.50;86.80;;;;;;5051708;28;20024;-33
2023/09/30 07:29:44;;;;;;;8.73;6.88;;;14.50;86.80;;;;;;5051279;28;20049;-35
2023/09/30 07:32:09;;;;;;;11.38;7.22;;;14.50;86.70;;;;;;5051422;28;20402;-34
2023/09/30 07:34:35;;;;;;;11.38;6.65;;;14.60;86.70;;;;;;5051318;28;20380;-36
2023/09/30 07:37:01;;;;;;;10.48;6.82;;;14.60;86.60;;;;;;5050974;28;20033;-32
2023/09/30 07:39:26;;;;;;;11.27;7.03;;;14.60;86.60;;;;;;5051347;28;20055;-35
2023/09/30 07:41:52;;;;;;;11.30;7.35;;;14.70;86.60;;;;;;5051127;28;20109;-34
2023/09/30 07:44:17;;;;;;;13.48;7.38;;;14.70;86.70;;;;;;5049982;28;20024;-34
2023/09/30 07:46:43;;;;;;;14.63;7.95;;;14.70;86.60;;;;;;5051003;28;20492;-35
2023/09/30 07:49:10;;;;;;;11.63;7.32;;;14.80;86.60;;;;;;5051162;28;20444;-34
2023/09/30 07:51:36;;;;;;;11.88;7.15;;;14.80;86.50;;;;;;5051128;28;20040;-33
2023/09/30 07:54:03;;;;;;;12.00;7.53;;;14.90;86.60;;;;;;5051102;28;20392;-35
2023/09/30 07:56:29;;;;;;;10.90;7.70;;;14.90;86.50;;;;;;5051105;28;20099;-34
2023/09/30 07:58:54;;;;;;;14.25;8.45;;;14.90;86.60;;;;;;5051334;28;20504;-35
2023/09/30 08:01:20;;;;;;;11.15;7.60;;;14.90;86.50;;;;;;5051097;28;20060;-33
2023/09/30 08:03:46;;;;;;;14.32;8.05;;;15.00;86.60;;;;;;5054968;28;20509;-35
2023/09/30 08:06:12;;;;;;;15.02;7.68;;;15.00;86.60;;;;;;5055163;28;20108;-32
2023/09/30 08:08:38;;;;;;;13.15;7.25;;;15.10;86.60;;;;;;5055293;28;20108;-35
2023/09/30 08:11:04;;;;;;;12.70;7.55;;;15.10;86.50;;;;;;5054991;28;20112;-36
2023/09/30 08:13:32;;;;;;;12.18;7.47;;;15.20;86.40;;;;;;5055284;28;20021;-34
2023/09/30 08:15:58;;;;;;;11.82;7.18;;;15.20;86.40;;;;;;5055263;28;20025;-34
2023/09/30 08:18:23;;;;;;;13.18;7.57;;;15.20;86.40;;;;;;5053472;28;20032;-35
2023/09/30 08:20:49;;;;;;;13.65;7.53;;;15.30;86.40;;;;;;5054969;28;20385;-33
2023/09/30 08:23:15;;;;;;;12.90;7.45;;;15.30;86.40;;;;;;5054801;28;20028;-34
2023/09/30 08:25:40;;;;;;;11.13;7.82;;;15.30;86.30;;;;;;5053467;28;20021;-33
2023/09/30 08:28:06;;;;;;;13.52;8.05;;;15.40;86.30;;;;;;5054941;28;20443;-32
2023/09/30 08:30:36;;;;;;;12.82;7.55;;;15.40;86.20;;;;;;5054664;28;20025;-34
2023/09/30 08:33:03;;;;;;;12.75;7.53;;;15.50;86.20;;;;;;5054569;28;20465;-33
2023/09/30 08:35:30;;;;;;;13.43;6.85;;;15.50;86.20;;;;;;5054543;28;20029;-33
2023/09/30 08:37:55;;;;;;;16.33;9.15;;;15.60;86.20;;;;;;5054560;28;20025;-35
2023/09/30 08:40:22;;;;;;;16.20;7.43;;;15.60;86.20;;;;;;5054499;28;20082;-34
2023/09/30 08:42:51;;;;;;;12.93;7.55;;;15.60;86.10;;;;;;5054434;28;20547;-33
2023/09/30 08:45:18;;;;;;;11.90;6.97;;;15.70;86.10;;;;;;5052967;28;20021;-34
2023/09/30 08:47:44;;;;;;;13.70;7.25;;;15.80;86.10;;;;;;5053869;28;20028;-35
2023/09/30 08:50:10;;;;;;;14.07;6.95;;;15.80;86.00;;;;;;5052671;28;20032;-35
2023/09/30 08:52:39;;;;;;;11.85;7.05;;;15.80;85.90;;;;;;5054677;28;20025;-35
2023/09/30 08:55:06;;;;;;;12.13;7.10;;;15.90;85.90;;;;;;5054434;28;20456;-35
2023/09/30 08:57:33;;;;;;;11.80;7.28;;;16.00;85.80;;;;;;5054491;28;20047;-36
2023/09/30 08:59:59;;;;;;;16.33;7.95;;;16.10;85.70;;;;;;5054106;28;20440;-33
2023/09/30 09:02:25;;;;;;;13.77;8.48;;;16.10;85.60;;;;;;5054102;28;20029;-35
2023/09/30 09:04:52;;;;;;;13.27;7.45;;;16.10;85.70;;;;;;5054569;28;20040;-34
2023/09/30 09:07:17;;;;;;;15.07;7.68;;;16.20;85.60;;;;;;5053855;28;20121;-34
2023/09/30 09:10:04;;;;;;;13.95;7.32;;;16.20;85.60;;;;;;5053793;28;20049;-35
2023/09/30 09:12:29;;;;;;;12.85;7.47;;;16.30;86.20;;;;;;5053946;28;20036;-35
2023/09/30 09:14:55;;;;;;;11.18;6.13;;;16.30;85.40;;;;;;5052907;28;20021;-35
2023/09/30 09:17:22;;;;;;;13.68;6.82;;;16.40;85.40;;;;;;5053575;28;20025;-34
2023/09/30 09:20:00;;;;;;;10.43;6.45;;;16.40;85.20;;;;;;5054074;28;20488;-34
2023/09/30 09:22:41;;;;;;;13.55;7.78;;;16.50;85.20;;;;;;5053951;28;20021;-35
2023/09/30 09:25:07;;;;;;;13.05;7.05;;;16.60;85.00;;;;;;5053766;28;20033;-34
2023/09/30 09:27:37;;;;;;;14.90;8.00;;;16.60;85.00;;;;;;5053751;28;20088;-33
2023/09/30 09:30:26;;;;;;;13.45;7.07;;;16.70;84.90;;;;;;5051843;28;20110;-35
2023/09/30 09:32:57;;;;;;;10.00;6.38;;;16.70;84.80;;;;;;5053452;28;20056;-34
2023/09/30 09:35:25;;;;;;;11.18;6.03;;;16.80;84.80;;;;;;5053466;28;20556;-34
2023/09/30 09:38:08;;;;;;;13.77;7.18;;;16.80;84.60;;;;;;5053369;28;20335;-34
2023/09/30 09:40:37;;;;;;;12.75;6.55;;;16.90;84.50;;;;;;5053721;28;20540;-34
2023/09/30 09:43:05;;;;;;;11.40;6.85;;;16.90;84.50;;;;;;5053670;28;20464;-35
2023/09/30 09:45:33;;;;;;;14.57;6.72;;;17.00;84.40;;;;;;5051760;28;20128;-33
2023/09/30 09:47:59;;;;;;;11.23;6.18;;;17.00;84.30;;;;;;5052924;28;20025;-34
2023/09/30 09:50:25;;;;;;;12.63;6.07;;;17.10;84.20;;;;;;5052952;28;20029;-34
2023/09/30 09:52:55;;;;;;;9.20;5.80;;;17.20;84.20;;;;;;5053062;28;20645;-34
2023/09/30 09:55:24;;;;;;;12.45;6.20;;;17.20;84.00;;;;;;5053227;28;20032;-34
2023/09/30 09:57:50;;;;;;;16.40;7.53;;;17.30;83.90;;;;;;5052756;28;20051;-35
2023/09/30 10:00:23;;;;;;;9.27;5.97;;;17.30;83.80;;;;;;5052829;28;20110;-35
2023/09/30 10:02:50;;;;;;;11.02;5.95;;;17.40;83.80;;;;;;5051664;28;20104;-35
2023/09/30 10:05:17;;;;;;;14.73;6.95;;;17.40;83.70;;;;;;5052909;28;20045;-35
2023/09/30 10:07:57;;;;;;;11.35;6.70;;;17.50;83.60;;;;;;5052584;28;20025;-35
2023/09/30 10:10:24;;;;;;;12.73;7.20;;;17.60;83.40;;;;;;5052924;28;20373;-35
2023/09/30 10:12:50;;;;;;;10.80;6.40;;;17.60;83.20;;;;;;5053056;28;20017;-34
2023/09/30 10:15:25;;;;;;;12.65;6.32;;;17.70;83.10;;;;;;5052917;28;20515;-35
2023/09/30 10:18:04;;;;;;;11.35;6.60;;;17.70;83.10;;;;;;5052554;28;20021;-36
2023/09/30 10:20:31;;;;;;;11.15;5.85;;;17.80;82.90;;;;;;5052421;28;20396;-35
2023/09/30 10:23:32;;;;;;;13.82;6.68;;;17.80;82.70;;;;;;5053017;28;20477;-37
2023/09/30 10:26:13;;;;;;;13.43;5.97;;;17.90;82.40;;;;;;5052385;28;20531;-33
2023/09/30 10:28:49;;;;;;;11.25;6.18;;;17.90;82.10;;;;;;5052077;28;20049;-34
2023/09/30 10:31:25;;;;;;;8.07;6.05;;;18.00;82.20;;;;;;5052585;28;20057;-35
2023/09/30 10:34:00;;;;;;;12.98;6.95;;;18.10;81.90;;;;;;5052688;28;20035;-33
2023/09/30 10:36:28;;;;;;;11.20;5.20;;;18.10;81.60;;;;;;5052350;28;20017;-35
2023/09/30 10:38:53;;;;;;;11.05;5.65;;;18.10;82.30;;;;;;5050752;28;20485;-35
2023/09/30 10:41:40;;;;;;;11.30;5.18;;;18.00;81.60;;;;;;5052301;28;20082;-35
2023/09/30 10:44:25;;;;;;;10.32;5.63;;;18.00;81.60;;;;;;5052100;28;20035;-35
2023/09/30 10:46:54;;;;;;;12.00;5.22;;;18.00;81.40;;;;;;5052035;28;20025;-34
2023/09/30 10:49:23;;;;;;;9.40;4.38;;;17.90;81.20;;;;;;5051985;28;20032;-34
2023/09/30 10:51:53;;;;;;;8.85;4.28;;;18.00;81.20;;;;;;5051955;28;20082;-34
2023/09/30 10:54:30;;;;;;;10.75;4.78;;;18.20;81.00;;;;;;5052162;28;20495;-35
2023/09/30 10:56:59;;;;;;;8.07;3.90;;;18.30;80.60;;;;;;5050489;28;20025;-35
2023/09/30 10:59:32;;;;;;;12.15;4.32;;;18.40;79.70;;;;;;5052156;28;20381;-34
2023/09/30 11:01:58;;;;;;;;;;;18.60;79.40;;;;;;5052621;28;20122;-34
2023/09/30 11:04:23;;;;;;;8.35;3.70;;;18.80;79.10;;;;;;5052062;28;19951;-34
2023/09/30 11:06:52;;;;;;;8.63;3.63;;;18.90;78.60;;;;;;5051764;28;20027;-35
2023/09/30 11:09:21;;;;;;;9.13;3.70;;;19.00;78.40;;;;;;5051596;28;20036;-35
2023/09/30 11:11:48;;;;;;;7.57;2.80;;;19.20;77.00;;;;;;5051999;28;20025;-34
2023/09/30 11:14:23;;;;;;;7.40;3.42;;;19.20;76.80;;;;;;5050637;28;20017;-35
2023/09/30 11:16:51;;;;;;;9.75;3.53;;;19.20;76.00;;;;;;5051615;28;20031;-33
2023/09/30 11:19:17;;;;;;;5.68;2.80;;;19.20;75.50;;;;;;5051415;28;20165;-34
2023/09/30 11:21:43;;;;;;;8.52;3.58;;;19.10;75.60;;;;;;5051738;28;20424;-34
2023/09/30 11:24:10;;;;;;;5.82;2.72;;;19.10;75.40;;;;;;5051542;28;20021;-33
2023/09/30 11:26:36;;;;;;;6.95;2.97;;;19.10;75.40;;;;;;5051726;28;20016;-34
2023/09/30 11:29:28;;;;;;;7.78;2.70;;;19.10;75.30;;;;;;5051326;28;20064;-33
2023/09/30 11:31:53;;;;;;;6.88;2.80;;;19.10;74.90;;;;;;5050451;28;20029;-34
2023/09/30 11:34:19;;;;;;;5.68;2.67;;;19.00;74.60;;;;;;5051681;28;20021;-34
2023/09/30 11:36:54;;;;;;;8.18;2.72;;;19.00;74.40;;;;;;5051258;28;20044;-34
2023/09/30 11:39:24;;;;;;;7.53;2.97;;;19.00;73.90;;;;;;5051281;28;20052;-34
2023/09/30 11:41:50;;;;;;;6.25;3.15;;;19.10;73.80;;;;;;5051928;28;20477;-34
2023/09/30 11:44:17;;;;;;;6.72;2.50;;;19.10;73.40;;;;;;5051258;28;20028;-35
2023/09/30 11:46:53;;;;;;;7.60;2.40;;;19.10;73.30;;;;;;5051325;28;20448;-35
2023/09/30 11:49:29;;;;;;;6.90;2.42;;;19.20;73.10;;;;;;5050982;28;20021;-34
2023/09/30 11:51:56;;;;;;;7.45;2.25;;;19.40;72.90;;;;;;5050062;28;20025;-36
2023/09/30 11:54:22;;;;;;;6.32;2.28;;;19.50;71.80;;;;;;5051341;28;20021;-35
2023/09/30 11:56:50;;;;;;;6.20;2.15;;;19.60;70.80;;;;;;5051508;28;20021;-34
2023/09/30 11:59:16;;;;;;;6.00;2.03;;;19.80;70.80;;;;;;5051430;28;20021;-35
2023/09/30 12:01:43;;;;;;;6.65;2.42;;;20.00;70.70;;;;;;5051584;28;20051;-38
2023/09/30 12:04:09;;;;;;;6.25;2.45;;;20.10;70.30;;;;;;5051520;28;20029;-35
2023/09/30 12:06:36;;;;;;;6.88;2.30;;;20.30;70.00;;;;;;5051277;28;20350;-35
2023/09/30 12:09:02;;;;;;;6.38;2.10;;;20.40;69.00;;;;;;5051045;28;20021;-34
2023/09/30 12:11:29;;;;;;;7.28;2.67;;;20.50;69.60;;;;;;5051328;28;20025;-35
2023/09/30 12:13:54;;;;;;;5.97;2.60;;;20.60;67.80;;;;;;5051550;28;20492;-35
2023/09/30 12:16:21;;;;;;;6.47;2.50;;;20.50;66.60;;;;;;5051330;28;20013;-41
2023/09/30 12:18:46;;;;;;;7.18;2.40;;;20.60;67.00;;;;;;5051128;28;20534;-35
2023/09/30 12:21:19;;;;;;;8.85;2.65;;;20.70;66.90;;;;;;5051253;28;20108;-35
2023/09/30 12:23:45;;;;;;;5.38;2.00;;;20.70;66.60;;;;;;5049646;28;20032;-35
2023/09/30 12:26:11;;;;;;;4.13;2.13;;;20.70;66.00;;;;;;5051137;28;20033;-33
2023/09/30 12:28:37;;;;;;;7.00;2.17;;;20.60;65.30;;;;;;5050897;28;20041;-35
2023/09/30 12:31:04;;;;;;;9.32;2.50;;;20.60;65.00;;;;;;5050864;28;20043;-35
2023/09/30 12:33:30;;;;;;;5.88;2.15;;;20.50;64.50;;;;;;5051338;28;20109;-35
2023/09/30 12:35:59;;;;;;;5.90;2.33;;;20.40;64.60;;;;;;5051013;28;20530;-35
2023/09/30 12:38:26;;;;;;;8.45;2.17;;;20.30;64.40;;;;;;5049412;28;20449;-36
2023/09/30 12:40:53;;;;;;;5.63;2.00;;;20.20;64.50;;;;;;5050948;28;20033;-35